createdAt,value
2023-04-15T00:01:53.728Z,6.65
2023-04-15T00:04:21.006Z,6.00
2023-04-15T00:06:55.347Z,5.93
2023-04-15T00:09:22.418Z,5.97
2023-04-15T00:11:51.341Z,5.07
2023-04-15T00:14:18.440Z,4.30
2023-04-15T00:16:45.485Z,4.15
2023-04-15T00:19:13.244Z,5.88
2023-04-15T00:21:40.273Z,4.35
2023-04-15T00:24:07.239Z,5.40
2023-04-15T00:26:34.281Z,6.55
2023-04-15T00:29:01.603Z,5.80
2023-04-15T00:31:28.893Z,5.88
2023-04-15T00:33:55.957Z,4.75
2023-04-15T00:36:23.510Z,3.83
2023-04-15T00:38:50.930Z,4.80
2023-04-15T00:41:19.412Z,8.07
2023-04-15T00:43:46.469Z,6.85
2023-04-15T00:46:16.129Z,8.88
2023-04-15T00:48:44.266Z,6.60
2023-04-15T00:51:11.351Z,7.28
2023-04-15T00:53:38.404Z,6.18
2023-04-15T00:56:06.691Z,9.50
2023-04-15T00:58:33.766Z,8.02
2023-04-15T01:01:01.108Z,6.68
2023-04-15T01:03:30.285Z,5.23
2023-04-15T01:06:01.571Z,7.97
2023-04-15T01:08:31.264Z,6.90
2023-04-15T01:11:02.324Z,5.57
2023-04-15T01:13:30.386Z,8.68
2023-04-15T01:15:58.107Z,6.63
2023-04-15T01:18:25.443Z,6.70
2023-04-15T01:20:52.390Z,5.07
2023-04-15T01:23:19.954Z,4.65
2023-04-15T01:25:47.657Z,6.35
2023-04-15T01:28:14.922Z,5.57
2023-04-15T01:30:42.343Z,7.40
2023-04-15T01:33:09.388Z,4.30
2023-04-15T01:35:36.528Z,6.57
2023-04-15T01:38:09.424Z,6.63
2023-04-15T01:40:37.963Z,6.85
2023-04-15T01:43:05.024Z,8.98
2023-04-15T01:45:34.181Z,8.80
2023-04-15T01:48:04.423Z,5.75
2023-04-15T01:50:31.629Z,5.55
2023-04-15T01:52:58.712Z,6.05
2023-04-15T01:55:26.314Z,9.73
2023-04-15T01:57:53.292Z,6.80
2023-04-15T02:00:22.441Z,6.63
2023-04-15T02:02:49.708Z,5.57
2023-04-15T02:05:16.800Z,7.20
2023-04-15T02:07:48.549Z,10.55
2023-04-15T02:10:16.877Z,5.05
2023-04-15T02:12:44.155Z,5.90
2023-04-15T02:15:11.745Z,7.45
2023-04-15T02:17:38.866Z,6.03
2023-04-15T02:20:06.540Z,7.00
2023-04-15T02:22:33.537Z,6.97
2023-04-15T02:25:00.612Z,5.00
2023-04-15T02:27:29.024Z,5.03
2023-04-15T02:29:56.028Z,6.20
2023-04-15T02:32:24.584Z,6.45
2023-04-15T02:34:51.897Z,5.40
2023-04-15T02:37:20.541Z,4.63
2023-04-15T02:39:47.920Z,6.47
2023-04-15T02:42:15.879Z,4.57
2023-04-15T02:44:43.728Z,6.07
2023-04-15T02:47:11.793Z,7.78
2023-04-15T02:49:41.976Z,5.45
2023-04-15T02:52:10.167Z,6.88
2023-04-15T02:54:37.393Z,4.95
2023-04-15T02:57:06.879Z,5.63
2023-04-15T03:02:01.258Z,6.45
2023-04-15T03:04:30.291Z,4.95
2023-04-15T03:06:57.595Z,5.17
2023-04-15T03:09:25.371Z,6.88
2023-04-15T03:11:54.847Z,5.00
2023-04-15T03:14:22.537Z,3.75
2023-04-15T03:16:50.722Z,4.93
2023-04-15T03:19:18.354Z,4.88
2023-04-15T03:21:45.385Z,3.22
2023-04-15T03:24:12.718Z,6.72
2023-04-15T03:26:39.849Z,3.53
2023-04-15T03:29:12.305Z,4.18
2023-04-15T03:31:40.620Z,4.75
2023-04-15T03:34:07.660Z,5.78
2023-04-15T03:36:35.073Z,4.13
2023-04-15T03:39:04.728Z,3.78
2023-04-15T03:44:00.114Z,3.22
2023-04-15T03:46:27.258Z,4.50
2023-04-15T03:48:54.239Z,5.63
2023-04-15T03:51:21.545Z,4.40
2023-04-15T03:53:48.520Z,4.10
2023-04-15T03:56:15.988Z,3.55
2023-04-15T03:58:43.054Z,5.47
2023-04-15T04:01:10.367Z,3.47
2023-04-15T04:03:38.042Z,4.55
2023-04-15T04:06:05.248Z,4.35
2023-04-15T04:08:32.374Z,5.88
2023-04-15T04:10:59.417Z,6.30
2023-04-15T04:13:26.551Z,7.45
2023-04-15T04:15:53.603Z,3.97
2023-04-15T04:18:20.777Z,5.65
2023-04-15T04:20:48.206Z,6.45
2023-04-15T04:23:15.205Z,5.38
2023-04-15T04:25:42.545Z,5.55
2023-04-15T04:28:09.654Z,5.25
2023-04-15T04:30:36.720Z,6.18
2023-04-15T04:33:03.939Z,4.03
2023-04-15T04:35:30.976Z,8.40
2023-04-15T04:38:02.049Z,3.58
2023-04-15T04:40:29.039Z,4.93
2023-04-15T04:42:56.109Z,6.25
2023-04-15T04:45:23.716Z,3.72
2023-04-15T04:47:50.829Z,4.80
2023-04-15T04:50:17.810Z,3.22
2023-04-15T04:52:44.853Z,5.47
2023-04-15T04:55:11.913Z,4.80
2023-04-15T04:57:39.809Z,5.20
2023-04-15T05:00:09.047Z,4.30
2023-04-15T05:02:36.252Z,6.03
2023-04-15T05:05:03.369Z,8.35
2023-04-15T05:07:30.630Z,4.60
2023-04-15T05:09:57.596Z,6.47
2023-04-15T05:12:29.254Z,4.55
2023-04-15T05:14:56.352Z,4.18
2023-04-15T05:17:23.394Z,5.90
2023-04-15T05:19:50.583Z,5.85
2023-04-15T05:22:17.544Z,4.63
2023-04-15T05:24:44.553Z,5.68
2023-04-15T05:27:11.929Z,6.32
2023-04-15T05:29:39.008Z,5.13
2023-04-15T05:32:06.718Z,5.63
2023-04-15T05:34:33.758Z,4.80
2023-04-15T05:37:00.852Z,4.70
2023-04-15T05:39:28.012Z,7.80
2023-04-15T05:41:54.974Z,5.28
2023-04-15T05:44:22.021Z,6.55
2023-04-15T05:46:48.958Z,7.03
2023-04-15T05:49:15.945Z,6.65
2023-04-15T05:51:42.893Z,6.57
2023-04-15T05:54:09.887Z,8.15
2023-04-15T05:56:37.113Z,11.10
2023-04-15T05:59:04.126Z,9.98
2023-04-15T06:01:31.326Z,9.32
2023-04-15T06:03:58.390Z,15.88
2023-04-15T06:06:25.433Z,10.25
2023-04-15T06:08:52.508Z,8.35
2023-04-15T06:11:22.171Z,9.52
2023-04-15T06:16:16.183Z,10.75
2023-04-15T06:18:43.306Z,8.52
2023-04-15T06:21:10.676Z,8.15
2023-04-15T06:23:37.807Z,7.15
2023-04-15T06:26:04.873Z,7.15
2023-04-15T06:28:33.006Z,7.10
2023-04-15T06:31:01.572Z,7.88
2023-04-15T06:33:28.798Z,6.38
2023-04-15T06:35:55.743Z,9.60
2023-04-15T06:38:22.799Z,7.82
2023-04-15T06:40:49.830Z,9.10
2023-04-15T06:43:16.809Z,7.15
2023-04-15T06:45:44.894Z,8.38
2023-04-15T06:48:12.286Z,5.70
2023-04-15T06:50:39.374Z,5.38
2023-04-15T06:53:06.733Z,8.82
2023-04-15T06:55:34.490Z,7.60
2023-04-15T06:58:01.556Z,6.60
2023-04-15T07:00:28.915Z,5.85
2023-04-15T07:02:56.650Z,7.10
2023-04-15T07:05:25.480Z,6.70
2023-04-15T07:07:53.334Z,8.37
2023-04-15T07:10:20.614Z,4.43
2023-04-15T07:12:49.301Z,10.35
2023-04-15T07:15:16.651Z,4.55
2023-04-15T07:17:43.650Z,7.68
2023-04-15T07:20:13.108Z,4.80
2023-04-15T07:22:41.081Z,5.07
2023-04-15T07:25:09.054Z,5.10
2023-04-15T07:27:36.406Z,5.75
2023-04-15T07:30:03.667Z,5.57
2023-04-15T07:32:31.689Z,6.90
2023-04-15T07:35:03.851Z,17.15
2023-04-15T07:37:34.613Z,4.67
2023-04-15T07:40:01.998Z,4.60
2023-04-15T07:42:29.467Z,5.40
2023-04-15T07:44:58.109Z,5.80
2023-04-15T07:47:25.966Z,6.85
2023-04-15T07:49:53.342Z,4.32
2023-04-15T07:52:20.394Z,7.15
2023-04-15T07:54:47.422Z,5.07
2023-04-15T07:57:14.476Z,4.97
2023-04-15T07:59:42.099Z,6.10
2023-04-15T08:02:09.952Z,5.75
2023-04-15T08:04:37.601Z,7.13
2023-04-15T08:07:05.178Z,6.20
2023-04-15T08:09:32.159Z,4.38
2023-04-15T08:11:59.162Z,4.35
2023-04-15T08:14:26.384Z,6.28
2023-04-15T08:16:53.526Z,6.07
2023-04-15T08:19:20.763Z,5.05
2023-04-15T08:21:47.777Z,5.53
2023-04-15T08:24:15.751Z,8.00
2023-04-15T08:26:42.837Z,8.63
2023-04-15T08:29:09.877Z,6.53
2023-04-15T08:31:36.881Z,9.57
2023-04-15T08:34:03.951Z,6.65
2023-04-15T08:36:32.619Z,7.93
2023-04-15T08:39:02.328Z,10.52
2023-04-15T08:41:40.048Z,7.50
2023-04-15T08:44:07.638Z,8.55
2023-04-15T08:46:35.089Z,8.15
2023-04-15T08:49:05.294Z,7.10
2023-04-15T08:51:34.035Z,4.80
2023-04-15T08:54:03.872Z,7.88
2023-04-15T08:59:02.267Z,8.43
2023-04-15T09:01:29.797Z,6.75
2023-04-15T09:03:57.682Z,6.75
2023-04-15T09:06:25.732Z,6.05
2023-04-15T09:08:54.911Z,7.03
2023-04-15T09:11:22.650Z,6.30
2023-04-15T09:13:49.895Z,7.88
2023-04-15T09:16:17.197Z,9.27
2023-04-15T09:18:44.394Z,6.90
2023-04-15T09:21:17.920Z,7.65
2023-04-15T09:24:01.990Z,10.32
2023-04-15T09:26:37.925Z,9.32
2023-04-15T09:29:09.842Z,10.27
2023-04-15T09:31:37.857Z,9.20
2023-04-15T09:34:05.927Z,9.80
2023-04-15T09:36:50.965Z,7.70
2023-04-15T09:39:18.281Z,9.38
2023-04-15T09:41:45.572Z,9.20
2023-04-15T09:44:26.128Z,10.38
2023-04-15T09:46:53.188Z,8.73
2023-04-15T09:49:21.387Z,8.85
2023-04-15T09:52:03.932Z,5.95
2023-04-15T09:54:38.934Z,6.93
2023-04-15T09:57:07.565Z,8.05
2023-04-15T09:59:34.616Z,5.88
2023-04-15T10:02:04.823Z,6.40
2023-04-15T10:04:36.607Z,6.90
2023-04-15T10:07:06.388Z,6.10
2023-04-15T10:09:34.952Z,9.65
2023-04-15T10:12:04.277Z,7.13
2023-04-15T10:14:38.730Z,6.85
2023-04-15T10:17:07.856Z,9.07
2023-04-15T10:19:38.205Z,6.90
2023-04-15T10:22:05.551Z,5.90
2023-04-15T10:24:33.309Z,8.73
2023-04-15T10:27:01.114Z,6.65
2023-04-15T10:29:28.629Z,8.10
2023-04-15T10:31:57.012Z,7.18
2023-04-15T10:34:25.782Z,7.03
2023-04-15T10:36:57.523Z,6.43
2023-04-15T10:39:34.325Z,5.38
2023-04-15T10:42:07.637Z,6.68
2023-04-15T10:44:37.876Z,7.25
2023-04-15T10:47:20.567Z,10.70
2023-04-15T10:49:50.501Z,8.05
2023-04-15T10:52:25.924Z,7.97
2023-04-15T10:55:04.692Z,7.03
2023-04-15T10:57:37.789Z,7.35
2023-04-15T11:00:18.862Z,7.03
2023-04-15T11:02:53.351Z,7.57
2023-04-15T11:05:22.319Z,7.85
2023-04-15T11:07:52.262Z,6.43
2023-04-15T11:10:31.352Z,6.57
2023-04-15T11:13:00.687Z,9.00
2023-04-15T11:15:41.181Z,6.45
2023-04-15T11:18:24.339Z,6.80
2023-04-15T11:20:54.985Z,6.68
2023-04-15T11:23:46.944Z,6.22
2023-04-15T11:26:14.264Z,7.97
2023-04-15T11:28:44.916Z,7.93
2023-04-15T11:31:18.056Z,7.72
2023-04-15T11:33:59.523Z,5.85
2023-04-15T11:36:28.238Z,21.80
2023-04-15T11:38:56.321Z,9.05
2023-04-15T11:41:26.702Z,6.28
2023-04-15T11:43:53.906Z,8.05
2023-04-15T11:46:22.899Z,8.35
2023-04-15T11:48:50.049Z,5.40
2023-04-15T11:51:17.097Z,6.93
2023-04-15T11:53:52.123Z,6.85
2023-04-15T11:56:24.004Z,4.65
2023-04-15T11:59:00.001Z,4.50
2023-04-15T12:01:39.972Z,3.53
2023-04-15T12:04:24.239Z,4.07
2023-04-15T12:06:52.357Z,3.65
2023-04-15T12:09:20.529Z,4.15
2023-04-15T12:11:49.372Z,2.78
2023-04-15T12:14:30.604Z,3.70
2023-04-15T12:17:00.600Z,4.20
2023-04-15T12:19:36.592Z,4.43
2023-04-15T12:22:10.501Z,6.03
2023-04-15T12:24:38.892Z,4.10
2023-04-15T12:27:11.457Z,3.58
2023-04-15T12:29:40.757Z,3.47
2023-04-15T12:32:15.911Z,3.78
2023-04-15T12:34:54.519Z,4.20
2023-04-15T12:37:21.976Z,5.35
2023-04-15T12:39:50.228Z,3.03
2023-04-15T12:42:17.857Z,4.28
2023-04-15T12:44:48.148Z,4.40
2023-04-15T12:47:15.455Z,5.75
2023-04-15T12:49:42.662Z,3.38
2023-04-15T12:52:09.734Z,2.90
2023-04-15T12:54:36.797Z,3.92
2023-04-15T12:57:06.846Z,4.75
2023-04-15T12:59:34.931Z,5.15
2023-04-15T13:02:03.042Z,4.10
2023-04-15T13:04:31.489Z,3.55
2023-04-15T13:06:58.978Z,4.85
2023-04-15T13:09:26.162Z,3.08
2023-04-15T13:11:54.524Z,2.40
2023-04-15T13:14:21.868Z,2.88
2023-04-15T13:16:48.919Z,3.72
2023-04-15T13:19:16.050Z,4.07
2023-04-15T13:21:43.114Z,5.38
2023-04-15T13:24:10.178Z,3.85
2023-04-15T13:26:37.976Z,2.95
2023-04-15T13:29:05.138Z,2.47
2023-04-15T13:31:32.280Z,3.05
2023-04-15T13:33:59.634Z,4.88
2023-04-15T13:36:27.514Z,2.20
2023-04-15T13:38:54.921Z,3.05
2023-04-15T13:41:22.224Z,2.15
2023-04-15T13:43:49.285Z,2.70
2023-04-15T13:46:16.789Z,2.60
2023-04-15T13:48:43.862Z,2.40
2023-04-15T13:51:10.954Z,3.33
2023-04-15T13:53:39.411Z,2.40
2023-04-15T13:56:08.479Z,2.80
2023-04-15T13:58:36.824Z,2.20
2023-04-15T14:01:05.952Z,2.45
2023-04-15T14:03:34.989Z,1.95
2023-04-15T14:06:02.555Z,4.83
2023-04-15T14:08:30.888Z,1.85
2023-04-15T14:10:57.960Z,2.85
2023-04-15T14:13:25.392Z,2.00
2023-04-15T14:15:52.497Z,2.97
2023-04-15T14:18:20.049Z,2.22
2023-04-15T14:20:47.210Z,1.73
2023-04-15T14:23:14.581Z,1.85
2023-04-15T14:25:41.768Z,2.67
2023-04-15T14:28:08.889Z,1.63
2023-04-15T14:30:36.054Z,1.95
2023-04-15T14:33:03.940Z,1.58
2023-04-15T14:35:31.509Z,1.70
2023-04-15T14:37:58.963Z,1.48
2023-04-15T14:40:26.085Z,1.65
2023-04-15T14:42:53.186Z,1.23
2023-04-15T14:45:20.237Z,1.30
2023-04-15T14:47:47.726Z,2.15
2023-04-15T14:50:21.154Z,1.75
2023-04-15T14:52:49.471Z,0.95
2023-04-15T14:55:16.630Z,3.70
2023-04-15T14:57:43.674Z,1.60
2023-04-15T15:00:13.740Z,2.00
2023-04-15T15:02:43.706Z,1.88
2023-04-15T15:05:12.212Z,1.60
2023-04-15T15:07:41.150Z,1.55
2023-04-15T15:10:08.589Z,3.60
2023-04-15T15:12:35.931Z,2.13
2023-04-15T15:15:12.301Z,1.73
2023-04-15T15:17:47.013Z,2.38
2023-04-15T15:20:14.124Z,1.92
2023-04-15T15:22:41.103Z,2.00
2023-04-15T15:25:08.233Z,1.40
2023-04-15T15:27:37.699Z,1.40
2023-04-15T15:30:07.014Z,2.00
2023-04-15T15:32:34.181Z,1.85
2023-04-15T15:35:01.370Z,23.02
2023-04-15T15:37:30.294Z,2.60
2023-04-15T15:39:57.495Z,1.35
2023-04-15T15:42:25.110Z,1.20
2023-04-15T15:44:53.001Z,1.48
2023-04-15T15:47:21.724Z,1.88
2023-04-15T15:49:48.839Z,1.20
2023-04-15T15:52:16.067Z,1.83
2023-04-15T15:54:43.202Z,1.40
2023-04-15T15:57:10.775Z,1.90
2023-04-15T15:59:43.683Z,3.60
2023-04-15T16:02:12.250Z,1.85
2023-04-15T16:04:39.915Z,2.42
2023-04-15T16:07:07.090Z,2.25
2023-04-15T16:09:34.650Z,3.67
2023-04-15T16:12:02.276Z,4.65
2023-04-15T16:14:34.535Z,2.28
2023-04-15T16:17:01.631Z,3.28
2023-04-15T16:19:28.749Z,2.65
2023-04-15T16:21:55.877Z,4.43
2023-04-15T16:24:23.006Z,2.67
2023-04-15T16:26:50.052Z,2.70
2023-04-15T16:29:17.093Z,5.00
2023-04-15T16:31:44.209Z,4.13
2023-04-15T16:34:11.644Z,3.28
2023-04-15T16:36:40.625Z,3.53
2023-04-15T16:39:07.910Z,13.63
2023-04-15T16:41:35.338Z,7.00
2023-04-15T16:44:03.487Z,10.52
2023-04-15T16:46:31.131Z,4.60
2023-04-15T16:48:58.334Z,4.72
2023-04-15T16:51:30.541Z,3.97
2023-04-15T16:53:57.707Z,3.53
2023-04-15T16:56:24.848Z,3.47
2023-04-15T16:58:51.888Z,3.80
2023-04-15T17:01:23.169Z,3.78
2023-04-15T17:03:50.470Z,5.18
2023-04-15T17:06:17.944Z,3.80
2023-04-15T17:08:45.038Z,4.55
2023-04-15T17:11:12.525Z,3.28
2023-04-15T17:13:39.546Z,3.03
2023-04-15T17:16:07.962Z,3.92
2023-04-15T17:18:34.998Z,2.95
2023-04-15T17:21:02.226Z,2.40
2023-04-15T17:23:29.681Z,4.90
2023-04-15T17:25:56.695Z,2.20
2023-04-15T17:28:23.738Z,4.10
2023-04-15T17:30:50.828Z,2.45
2023-04-15T17:33:55.952Z,2.95
2023-04-15T17:36:05.383Z,1.88
2023-04-15T17:38:32.368Z,4.07
2023-04-15T17:40:59.426Z,1.92
2023-04-15T17:43:26.466Z,2.97
2023-04-15T17:45:54.689Z,2.30
2023-04-15T17:48:21.902Z,1.88
2023-04-15T17:50:50.443Z,2.38
2023-04-15T17:53:19.078Z,2.50
2023-04-15T17:55:46.577Z,1.77
2023-04-15T17:58:13.620Z,2.53
2023-04-15T18:00:40.859Z,3.30
2023-04-15T18:03:08.196Z,2.60
2023-04-15T18:05:35.456Z,2.58
2023-04-15T18:08:02.515Z,1.83
2023-04-15T18:10:35.553Z,2.38
2023-04-15T18:13:03.527Z,2.20
2023-04-15T18:15:31.381Z,2.38
2023-04-15T18:18:05.637Z,2.60
2023-04-15T18:20:33.609Z,2.17
2023-04-15T18:23:00.700Z,1.42
2023-04-15T18:25:27.676Z,2.42
2023-04-15T18:27:55.225Z,1.77
2023-04-15T18:30:22.546Z,1.63
2023-04-15T18:32:49.595Z,1.83
2023-04-15T18:35:17.287Z,3.13
2023-04-15T18:37:44.290Z,2.00
2023-04-15T18:40:11.773Z,2.42
2023-04-15T18:42:38.804Z,1.40
2023-04-15T18:45:06.379Z,1.85
2023-04-15T18:47:33.436Z,2.10
2023-04-15T18:50:00.778Z,2.80
2023-04-15T18:52:27.735Z,1.98
2023-04-15T18:54:54.788Z,1.60
2023-04-15T18:57:28.652Z,1.77
2023-04-15T19:00:00.166Z,1.70
2023-04-15T19:02:27.250Z,1.73
2023-04-15T19:04:54.261Z,2.00
2023-04-15T19:07:22.255Z,2.03
2023-04-15T19:09:49.250Z,1.70
2023-04-15T19:12:16.290Z,3.33
2023-04-15T19:14:43.342Z,2.78
2023-04-15T19:17:10.344Z,2.95
2023-04-15T19:19:37.402Z,3.53
2023-04-15T19:22:04.716Z,2.63
2023-04-15T19:24:33.103Z,2.15
2023-04-15T19:27:01.581Z,1.75
2023-04-15T19:29:28.980Z,4.50
2023-04-15T19:31:56.169Z,2.00
2023-04-15T19:34:23.256Z,1.63
2023-04-15T19:36:50.562Z,2.35
2023-04-15T19:39:22.758Z,3.33
2023-04-15T19:41:49.967Z,1.70
2023-04-15T19:44:17.035Z,1.80
2023-04-15T19:46:45.016Z,1.77
2023-04-15T19:49:12.394Z,2.15
2023-04-15T19:51:39.320Z,2.17
2023-04-15T19:54:06.633Z,2.08
2023-04-15T19:56:34.560Z,2.30
2023-04-15T19:59:02.316Z,2.22
2023-04-15T20:01:29.317Z,2.08
2023-04-15T20:03:56.483Z,2.30
2023-04-15T20:06:23.949Z,2.33
2023-04-15T20:08:51.932Z,3.78
2023-04-15T20:11:19.128Z,3.92
2023-04-15T20:13:46.264Z,1.92
2023-04-15T20:16:13.451Z,2.30
2023-04-15T20:18:40.401Z,2.58
2023-04-15T20:21:07.416Z,3.42
2023-04-15T20:23:36.048Z,3.42
2023-04-15T20:26:03.006Z,3.25
2023-04-15T20:28:30.335Z,2.85
2023-04-15T20:30:57.378Z,3.15
2023-04-15T20:33:25.833Z,3.67
2023-04-15T20:35:53.596Z,4.00
2023-04-15T20:38:21.945Z,3.55
2023-04-15T20:40:48.944Z,3.53
2023-04-15T20:43:15.997Z,4.38
2023-04-15T20:45:42.988Z,3.72
2023-04-15T20:48:10.989Z,3.40
2023-04-15T20:50:38.963Z,3.47
2023-04-15T20:53:06.206Z,3.25
2023-04-15T20:55:33.178Z,3.72
2023-04-15T20:58:00.221Z,4.07
2023-04-15T21:00:27.441Z,3.67
2023-04-15T21:02:54.708Z,3.28
2023-04-15T21:05:21.885Z,4.22
2023-04-15T21:07:48.959Z,3.03
2023-04-15T21:10:16.070Z,3.85
2023-04-15T21:12:43.032Z,3.30
2023-04-15T21:15:10.590Z,3.65
2023-04-15T21:17:37.759Z,3.30
2023-04-15T21:20:10.902Z,3.63
2023-04-15T21:22:37.888Z,3.85
2023-04-15T21:25:05.265Z,4.32
2023-04-15T21:27:32.311Z,4.80
2023-04-15T21:29:59.447Z,4.38
2023-04-15T21:32:27.286Z,4.45
2023-04-15T21:34:54.607Z,4.68
2023-04-15T21:37:21.621Z,4.85
2023-04-15T21:39:48.653Z,4.75
2023-04-15T21:42:15.728Z,5.10
2023-04-15T21:44:42.797Z,5.03
2023-04-15T21:47:09.883Z,4.85
2023-04-15T21:49:37.254Z,4.40
2023-04-15T21:52:04.730Z,5.10
2023-04-15T21:54:33.226Z,6.57
2023-04-15T21:57:02.019Z,4.82
2023-04-15T21:59:29.192Z,7.25
2023-04-15T22:01:56.422Z,7.75
2023-04-15T22:04:24.891Z,5.40
2023-04-15T22:06:52.389Z,5.57
2023-04-15T22:09:19.614Z,6.30
2023-04-15T22:11:47.372Z,5.43
2023-04-15T22:14:15.008Z,5.20
2023-04-15T22:16:42.060Z,5.53
2023-04-15T22:19:09.802Z,6.05
2023-04-15T22:21:36.879Z,6.05
2023-04-15T22:24:33.507Z,5.30
2023-04-15T22:26:51.036Z,6.93
2023-04-15T22:29:17.982Z,7.15
2023-04-15T22:31:45.024Z,6.25
2023-04-15T22:34:14.752Z,7.05
2023-04-15T22:36:41.807Z,7.05
2023-04-15T22:39:08.821Z,8.18
2023-04-15T22:41:35.896Z,7.60
2023-04-15T22:44:02.950Z,7.43
2023-04-15T22:46:30.638Z,7.28
2023-04-15T22:48:57.972Z,7.93
2023-04-15T22:51:28.053Z,8.20
2023-04-15T22:53:55.793Z,8.23
2023-04-15T22:56:23.431Z,8.32
2023-04-15T22:58:50.748Z,7.90
2023-04-15T23:01:18.478Z,8.20
2023-04-15T23:03:56.475Z,9.05
2023-04-15T23:06:31.525Z,9.95
2023-04-15T23:08:58.498Z,9.70
2023-04-15T23:11:25.557Z,8.88
2023-04-15T23:13:53.205Z,10.13
2023-04-15T23:16:20.203Z,9.15
2023-04-15T23:18:47.194Z,8.70
2023-04-15T23:21:14.243Z,8.27
2023-04-15T23:23:41.183Z,8.40
2023-04-15T23:26:08.168Z,8.30
2023-04-15T23:28:35.354Z,8.55
2023-04-15T23:31:03.942Z,8.20
2023-04-15T23:33:32.632Z,7.47
2023-04-15T23:35:59.596Z,7.97
2023-04-15T23:38:26.534Z,7.30
2023-04-15T23:40:53.503Z,7.53
2023-04-15T23:43:20.454Z,7.13
2023-04-15T23:45:47.534Z,7.43
2023-04-15T23:48:14.582Z,7.50
2023-04-15T23:50:41.566Z,7.28
2023-04-15T23:53:08.514Z,6.82
2023-04-15T23:55:35.582Z,6.80
2023-04-15T23:58:02.540Z,7.22
